createdAt,value
2023-05-02T00:01:54.278Z,34.00
2023-05-02T00:04:21.930Z,32.50
2023-05-02T00:06:48.843Z,35.00
2023-05-02T00:09:16.175Z,36.00
2023-05-02T00:11:43.090Z,35.00
2023-05-02T00:14:10.044Z,33.00
2023-05-02T00:16:37.114Z,30.50
2023-05-02T00:19:04.040Z,33.00
2023-05-02T00:21:30.866Z,32.00
2023-05-02T00:23:57.796Z,32.00
2023-05-02T00:26:24.948Z,31.00
2023-05-02T00:28:51.881Z,32.25
2023-05-02T00:31:18.873Z,34.00
2023-05-02T00:33:46.157Z,33.50
2023-05-02T00:36:17.805Z,33.00
2023-05-02T00:38:45.060Z,33.00
2023-05-02T00:41:12.191Z,33.00
2023-05-02T00:43:39.149Z,34.00
2023-05-02T00:46:06.984Z,33.00
2023-05-02T00:48:35.125Z,33.00
2023-05-02T00:51:04.576Z,34.00
2023-05-02T00:53:32.395Z,33.50
2023-05-02T00:55:59.589Z,33.00
2023-05-02T00:58:27.199Z,34.00
2023-05-02T01:01:12.568Z,31.75
2023-05-02T01:03:58.234Z,32.00
2023-05-02T01:07:02.882Z,34.00
2023-05-02T01:09:48.504Z,34.00
2023-05-02T01:12:54.325Z,34.00
2023-05-02T01:15:23.438Z,34.50
2023-05-02T01:17:52.957Z,32.00
2023-05-02T01:20:23.470Z,32.00
2023-05-02T01:22:51.589Z,33.75
2023-05-02T01:25:48.993Z,32.00
2023-05-02T01:28:28.033Z,32.50
2023-05-02T01:30:56.507Z,30.00
2023-05-02T01:33:26.187Z,31.50
2023-05-02T01:35:55.215Z,32.00
2023-05-02T01:38:24.463Z,32.25
2023-05-02T01:40:52.626Z,30.00
2023-05-02T01:43:21.164Z,32.00
2023-05-02T01:45:51.364Z,33.00
2023-05-02T01:48:20.126Z,32.00
2023-05-02T01:50:48.977Z,33.50
2023-05-02T01:53:16.613Z,32.00
2023-05-02T01:55:46.262Z,31.50
2023-05-02T01:58:15.182Z,32.00
2023-05-02T02:00:44.191Z,31.00
2023-05-02T02:03:13.146Z,32.00
2023-05-02T02:05:41.130Z,26.75
2023-05-02T02:08:08.794Z,26.00
2023-05-02T02:10:40.883Z,28.00
2023-05-02T02:13:18.708Z,31.00
2023-05-02T02:15:49.302Z,30.50
2023-05-02T02:18:25.732Z,30.00
2023-05-02T02:20:54.000Z,30.00
2023-05-02T02:23:25.934Z,30.00
2023-05-02T02:25:55.568Z,29.00
2023-05-02T02:28:22.671Z,28.00
2023-05-02T02:30:50.166Z,29.50
2023-05-02T02:33:17.962Z,29.00
2023-05-02T02:35:50.504Z,29.00
2023-05-02T02:38:31.605Z,28.00
2023-05-02T02:41:12.059Z,27.25
2023-05-02T02:44:06.239Z,28.00
2023-05-02T02:46:46.949Z,28.25
2023-05-02T02:49:19.932Z,29.50
2023-05-02T02:52:02.052Z,30.75
2023-05-02T02:54:55.651Z,31.00
2023-05-02T02:57:41.161Z,29.00
2023-05-02T03:00:21.188Z,28.00
2023-05-02T03:02:48.936Z,27.00
2023-05-02T03:05:16.782Z,27.00
2023-05-02T03:07:44.023Z,29.25
2023-05-02T03:10:11.060Z,26.75
2023-05-02T03:12:39.870Z,29.00
2023-05-02T03:15:29.387Z,28.00
2023-05-02T03:17:56.767Z,29.00
2023-05-02T03:20:23.660Z,23.75
2023-05-02T03:22:50.678Z,27.00
2023-05-02T03:25:17.531Z,30.00
2023-05-02T03:27:48.661Z,29.00
2023-05-02T03:30:15.874Z,28.50
2023-05-02T03:32:42.806Z,29.00
2023-05-02T03:35:10.258Z,26.00
2023-05-02T03:37:41.865Z,26.00
2023-05-02T03:40:09.113Z,26.50
2023-05-02T03:42:36.149Z,28.50
2023-05-02T03:45:03.611Z,28.00
2023-05-02T03:47:30.794Z,28.00
2023-05-02T03:49:58.012Z,28.00
2023-05-02T03:52:25.911Z,28.00
2023-05-02T03:54:54.131Z,28.00
2023-05-02T03:57:21.208Z,30.00
2023-05-02T03:59:48.231Z,29.50
2023-05-02T04:02:24.320Z,28.00
2023-05-02T04:04:51.378Z,29.00
2023-05-02T04:07:21.107Z,29.00
2023-05-02T04:09:57.790Z,29.00
2023-05-02T04:12:25.435Z,28.50
2023-05-02T04:14:53.347Z,27.50
2023-05-02T04:17:24.217Z,30.25
2023-05-02T04:19:52.179Z,31.00
2023-05-02T04:22:23.236Z,30.00
2023-05-02T04:24:54.865Z,29.00
2023-05-02T04:27:22.627Z,28.00
2023-05-02T04:29:50.780Z,26.75
2023-05-02T04:32:19.774Z,29.00
2023-05-02T04:34:48.249Z,29.00
2023-05-02T04:37:16.263Z,29.00
2023-05-02T04:39:45.225Z,27.00
2023-05-02T04:42:18.964Z,25.50
2023-05-02T04:45:09.858Z,26.50
2023-05-02T04:47:37.114Z,26.00
2023-05-02T04:50:04.237Z,27.75
2023-05-02T04:52:31.319Z,27.00
2023-05-02T04:54:58.298Z,28.25
2023-05-02T04:57:25.297Z,23.25
2023-05-02T04:59:56.282Z,25.00
2023-05-02T05:02:23.482Z,22.50
2023-05-02T05:04:50.578Z,26.75
2023-05-02T05:07:19.235Z,27.75
2023-05-02T05:09:49.399Z,28.00
2023-05-02T05:12:18.773Z,28.00
2023-05-02T05:14:45.670Z,27.50
2023-05-02T05:17:13.214Z,26.00
2023-05-02T05:19:40.423Z,24.00
2023-05-02T05:22:08.251Z,26.25
2023-05-02T05:24:35.116Z,26.00
2023-05-02T05:27:03.294Z,28.00
2023-05-02T05:29:32.148Z,26.00
2023-05-02T05:31:59.905Z,26.00
2023-05-02T05:34:27.775Z,21.00
2023-05-02T05:36:58.359Z,20.25
2023-05-02T05:39:25.361Z,23.25
2023-05-02T05:41:54.666Z,25.50
2023-05-02T05:44:40.507Z,25.50
2023-05-02T05:47:08.714Z,22.50
2023-05-02T05:49:37.078Z,24.75
2023-05-02T05:52:06.660Z,27.00
2023-05-02T05:54:33.655Z,26.50
2023-05-02T05:57:01.137Z,28.00
2023-05-02T05:59:28.091Z,28.00
2023-05-02T06:01:55.361Z,28.50
2023-05-02T06:04:23.489Z,28.00
2023-05-02T06:06:52.561Z,26.00
2023-05-02T06:09:19.673Z,27.75
2023-05-02T06:12:05.792Z,28.00
2023-05-02T06:14:34.076Z,28.00
2023-05-02T06:17:00.963Z,28.00
2023-05-02T06:19:28.342Z,28.00
2023-05-02T06:21:55.166Z,27.50
2023-05-02T06:24:41.212Z,27.75
2023-05-02T06:27:08.074Z,28.75
2023-05-02T06:29:34.891Z,28.00
2023-05-02T06:32:02.007Z,26.00
2023-05-02T06:34:28.877Z,26.75
2023-05-02T06:36:55.965Z,28.00
2023-05-02T06:39:22.876Z,27.50
2023-05-02T06:41:49.808Z,31.00
2023-05-02T06:44:18.107Z,31.00
2023-05-02T06:46:45.151Z,31.00
2023-05-02T06:49:30.552Z,29.00
2023-05-02T06:51:57.538Z,28.25
2023-05-02T06:54:28.264Z,29.00
2023-05-02T06:56:56.148Z,28.50
2023-05-02T06:59:25.640Z,28.00
2023-05-02T07:01:52.665Z,28.00
2023-05-02T07:04:19.809Z,28.00
2023-05-02T07:06:49.787Z,28.50
2023-05-02T07:09:16.769Z,28.75
2023-05-02T07:11:43.654Z,29.00
2023-05-02T07:14:10.775Z,30.00
2023-05-02T07:16:37.808Z,29.00
2023-05-02T07:19:04.808Z,27.00
2023-05-02T07:21:31.717Z,27.25
2023-05-02T07:23:58.631Z,28.75
2023-05-02T07:26:25.725Z,27.25
2023-05-02T07:28:53.912Z,29.75
2023-05-02T07:31:23.577Z,30.00
2023-05-02T07:34:08.909Z,30.75
2023-05-02T07:36:35.860Z,30.00
2023-05-02T07:39:02.823Z,27.75
2023-05-02T07:41:29.799Z,28.00
2023-05-02T07:43:56.901Z,28.50
2023-05-02T07:46:42.693Z,29.75
2023-05-02T07:49:09.772Z,32.00
2023-05-02T07:51:37.054Z,32.00
2023-05-02T07:54:22.707Z,32.00
2023-05-02T07:56:53.618Z,32.50
2023-05-02T07:59:20.630Z,32.50
2023-05-02T08:01:47.472Z,33.00
2023-05-02T08:04:16.934Z,32.50
2023-05-02T08:06:45.212Z,31.00
2023-05-02T08:09:12.214Z,31.50
2023-05-02T08:11:39.039Z,31.00
2023-05-02T08:14:05.939Z,31.00
2023-05-02T08:16:32.966Z,30.00
2023-05-02T08:18:59.863Z,30.00
2023-05-02T08:21:26.741Z,30.00
2023-05-02T08:23:58.241Z,27.75
2023-05-02T08:26:25.519Z,31.00
2023-05-02T08:28:52.767Z,31.00
2023-05-02T08:31:19.964Z,31.00
2023-05-02T08:33:47.231Z,31.00
2023-05-02T08:36:18.496Z,32.00
2023-05-02T08:38:46.590Z,32.00
2023-05-02T08:41:18.972Z,30.50
2023-05-02T08:43:46.886Z,29.00
2023-05-02T08:46:16.670Z,29.00
2023-05-02T08:48:45.783Z,30.00
2023-05-02T08:51:15.692Z,30.00
2023-05-02T08:53:42.808Z,31.00
2023-05-02T08:56:11.873Z,32.00
2023-05-02T08:58:41.019Z,32.00
2023-05-02T09:01:13.380Z,29.25
2023-05-02T09:03:43.231Z,30.00
2023-05-02T09:06:18.215Z,24.75
2023-05-02T09:08:48.267Z,29.00
2023-05-02T09:11:15.933Z,30.50
2023-05-02T09:13:51.505Z,31.00
2023-05-02T09:16:21.422Z,29.50
2023-05-02T09:18:55.599Z,27.50
2023-05-02T09:21:35.193Z,29.00
2023-05-02T09:24:05.824Z,30.00
2023-05-02T09:26:33.557Z,32.00
2023-05-02T09:29:06.245Z,29.00
2023-05-02T09:31:54.146Z,30.50
2023-05-02T09:34:23.457Z,31.00
2023-05-02T09:36:52.247Z,32.00
2023-05-02T09:39:23.041Z,31.25
2023-05-02T09:41:52.389Z,33.00
2023-05-02T09:44:22.036Z,30.00
2023-05-02T09:46:51.571Z,28.00
2023-05-02T09:49:19.246Z,29.25
2023-05-02T09:51:47.659Z,31.75
2023-05-02T09:54:15.401Z,32.00
2023-05-02T09:57:02.525Z,36.75
2023-05-02T09:59:29.529Z,33.00
2023-05-02T10:01:58.345Z,32.00
2023-05-02T10:04:26.182Z,32.00
2023-05-02T10:06:54.198Z,32.00
2023-05-02T10:09:22.196Z,35.50
2023-05-02T10:12:02.394Z,33.00
2023-05-02T10:14:31.885Z,33.00
2023-05-02T10:17:05.095Z,31.50
2023-05-02T10:20:07.497Z,31.00
2023-05-02T10:22:37.226Z,30.00
2023-05-02T10:25:04.914Z,30.00
2023-05-02T10:27:33.228Z,30.00
2023-05-02T10:30:00.890Z,29.00
2023-05-02T10:32:28.767Z,29.50
2023-05-02T10:35:04.380Z,28.00
2023-05-02T10:37:33.301Z,30.00
2023-05-02T10:40:01.377Z,29.50
2023-05-02T10:42:32.682Z,29.00
2023-05-02T10:45:00.333Z,29.00
2023-05-02T10:47:27.877Z,29.25
2023-05-02T10:50:00.651Z,30.00
2023-05-02T10:52:39.536Z,28.00
2023-05-02T10:55:23.753Z,29.25
2023-05-02T10:58:09.184Z,31.00
2023-05-02T11:00:38.584Z,30.25
2023-05-02T11:03:06.645Z,32.00
2023-05-02T11:06:05.900Z,32.00
2023-05-02T11:08:35.080Z,30.50
2023-05-02T11:11:58.091Z,31.00
2023-05-02T11:14:27.940Z,31.00
2023-05-02T11:17:03.696Z,28.50
2023-05-02T11:19:56.900Z,30.00
2023-05-02T11:22:34.253Z,29.00
2023-05-02T11:25:02.943Z,28.25
2023-05-02T11:27:32.027Z,30.00
2023-05-02T11:30:07.708Z,33.75
2023-05-02T11:32:46.806Z,35.00
2023-05-02T11:35:22.520Z,39.50
2023-05-02T11:38:00.817Z,40.00
2023-05-02T11:40:28.533Z,37.25
2023-05-02T11:42:56.661Z,35.00
2023-05-02T11:45:33.945Z,31.50
2023-05-02T11:48:01.009Z,31.00
2023-05-02T11:50:27.985Z,32.00
2023-05-02T11:52:55.054Z,30.00
2023-05-02T11:55:29.264Z,31.00
2023-05-02T11:57:59.757Z,31.00
2023-05-02T12:00:38.563Z,30.00
2023-05-02T12:03:34.261Z,30.00
2023-05-02T12:06:18.988Z,29.00
2023-05-02T12:08:46.990Z,28.00
2023-05-02T12:11:15.332Z,27.00
2023-05-02T12:13:50.133Z,28.00
2023-05-02T12:16:20.745Z,29.00
2023-05-02T12:18:48.549Z,30.25
2023-05-02T12:21:16.385Z,32.00
2023-05-02T12:23:46.927Z,33.50
2023-05-02T12:26:23.968Z,33.00
2023-05-02T12:28:52.363Z,31.00
2023-05-02T12:31:25.336Z,31.00
2023-05-02T12:33:52.666Z,26.50
2023-05-02T12:36:19.995Z,27.00
2023-05-02T12:38:57.174Z,29.25
2023-05-02T12:41:35.531Z,30.00
2023-05-02T12:44:03.254Z,30.00
2023-05-02T12:46:30.993Z,26.50
2023-05-02T12:49:10.676Z,28.00
2023-05-02T12:51:41.454Z,31.00
2023-05-02T12:54:08.619Z,31.75
2023-05-02T12:56:42.346Z,30.50
2023-05-02T12:59:10.860Z,27.50
2023-05-02T13:01:40.723Z,28.00
2023-05-02T13:04:12.838Z,29.00
2023-05-02T13:06:41.764Z,29.00
2023-05-02T13:09:08.619Z,30.00
2023-05-02T13:11:36.411Z,31.00
2023-05-02T13:14:03.912Z,31.00
2023-05-02T13:16:33.875Z,30.00
2023-05-02T13:19:04.772Z,31.00
2023-05-02T13:21:31.746Z,29.00
2023-05-02T13:24:00.779Z,31.00
2023-05-02T13:26:32.778Z,30.00
2023-05-02T13:28:59.740Z,30.50
2023-05-02T13:31:26.692Z,32.00
2023-05-02T13:33:53.766Z,31.00
2023-05-02T13:36:20.663Z,32.00
2023-05-02T13:38:47.866Z,32.50
2023-05-02T13:41:14.722Z,30.00
2023-05-02T13:43:41.709Z,30.00
2023-05-02T13:46:08.765Z,30.75
2023-05-02T13:48:36.314Z,31.75
2023-05-02T13:51:03.454Z,31.00
2023-05-02T13:53:30.367Z,33.00
2023-05-02T13:55:57.160Z,29.75
2023-05-02T13:58:24.144Z,31.00
2023-05-02T14:00:50.968Z,31.00
2023-05-02T14:03:18.112Z,32.00
2023-05-02T14:05:45.078Z,32.00
2023-05-02T14:08:14.676Z,31.00
2023-05-02T14:10:41.614Z,37.00
2023-05-02T14:13:10.333Z,34.00
2023-05-02T14:15:39.499Z,32.00
2023-05-02T14:18:09.008Z,32.00
2023-05-02T14:20:41.863Z,29.75
2023-05-02T14:23:10.969Z,30.50
2023-05-02T14:25:37.873Z,31.50
2023-05-02T14:28:05.607Z,32.00
2023-05-02T14:30:32.834Z,32.00
2023-05-02T14:33:01.714Z,31.00
2023-05-02T14:35:28.628Z,32.00
2023-05-02T14:37:55.639Z,33.75
2023-05-02T14:40:22.546Z,34.00
2023-05-02T14:42:49.710Z,33.00
2023-05-02T14:45:16.610Z,35.00
2023-05-02T14:47:48.921Z,32.00
2023-05-02T14:50:16.650Z,32.00
2023-05-02T14:52:43.532Z,32.00
2023-05-02T14:55:10.475Z,32.00
2023-05-02T14:57:39.622Z,32.00
2023-05-02T15:00:12.077Z,32.00
2023-05-02T15:02:39.132Z,30.00
2023-05-02T15:05:06.803Z,33.00
2023-05-02T15:07:33.932Z,32.50
2023-05-02T15:10:06.772Z,32.00
2023-05-02T15:12:40.514Z,30.00
2023-05-02T15:15:11.410Z,31.00
2023-05-02T15:17:44.799Z,31.75
2023-05-02T15:20:12.570Z,31.00
2023-05-02T15:22:39.509Z,31.00
2023-05-02T15:25:09.606Z,32.25
2023-05-02T15:27:36.528Z,31.00
2023-05-02T15:30:03.928Z,32.00
2023-05-02T15:32:31.136Z,32.00
2023-05-02T15:34:59.982Z,31.00
2023-05-02T15:37:27.206Z,32.25
2023-05-02T15:39:56.366Z,32.00
2023-05-02T15:42:26.901Z,33.00
2023-05-02T15:44:53.736Z,32.00
2023-05-02T15:47:21.594Z,31.50
2023-05-02T15:49:49.037Z,31.00
2023-05-02T15:52:15.846Z,31.75
2023-05-02T15:54:42.694Z,31.00
2023-05-02T15:57:14.196Z,34.00
2023-05-02T15:59:41.263Z,34.00
2023-05-02T16:02:10.493Z,33.00
2023-05-02T16:04:39.776Z,33.75
2023-05-02T16:07:13.137Z,33.00
2023-05-02T16:09:40.099Z,35.00
2023-05-02T16:12:07.175Z,38.25
2023-05-02T16:14:34.157Z,37.50
2023-05-02T16:17:03.436Z,34.00
2023-05-02T16:19:30.477Z,33.25
2023-05-02T16:21:57.371Z,33.50
2023-05-02T16:24:24.338Z,33.50
2023-05-02T16:26:51.185Z,34.00
2023-05-02T16:29:19.415Z,33.50
2023-05-02T16:31:46.493Z,33.00
2023-05-02T16:34:13.530Z,33.00
2023-05-02T16:36:40.465Z,32.00
2023-05-02T16:39:07.436Z,31.25
2023-05-02T16:41:38.489Z,33.00
2023-05-02T16:44:05.478Z,32.50
2023-05-02T16:46:32.585Z,33.00
2023-05-02T16:48:59.483Z,33.00
2023-05-02T16:51:26.616Z,33.50
2023-05-02T16:53:53.692Z,33.00
2023-05-02T16:56:20.556Z,33.00
2023-05-02T16:58:47.486Z,33.25
2023-05-02T17:01:14.871Z,33.75
2023-05-02T17:03:41.842Z,33.00
2023-05-02T17:06:09.001Z,33.00
2023-05-02T17:08:36.053Z,32.00
2023-05-02T17:11:02.876Z,32.50
2023-05-02T17:13:29.791Z,33.00
2023-05-02T17:15:56.625Z,34.00
2023-05-02T17:18:23.665Z,32.00
2023-05-02T17:20:50.594Z,33.00
2023-05-02T17:23:18.285Z,32.00
2023-05-02T17:25:45.255Z,33.00
2023-05-02T17:28:12.276Z,32.00
2023-05-02T17:30:39.310Z,35.00
2023-05-02T17:33:06.451Z,35.00
2023-05-02T17:35:33.307Z,35.00
2023-05-02T17:38:00.262Z,34.00
2023-05-02T17:40:27.147Z,34.00
2023-05-02T17:42:54.758Z,34.00
2023-05-02T17:45:22.172Z,33.25
2023-05-02T17:47:49.379Z,33.00
2023-05-02T17:50:16.279Z,33.25
2023-05-02T17:52:43.202Z,33.50
2023-05-02T17:55:10.178Z,33.00
2023-05-02T17:57:37.199Z,33.50
2023-05-02T18:00:05.078Z,36.25
2023-05-02T18:02:32.753Z,32.50
2023-05-02T18:04:59.613Z,33.00
2023-05-02T18:07:26.626Z,34.00
2023-05-02T18:09:53.553Z,34.00
2023-05-02T18:12:20.522Z,36.00
2023-05-02T18:14:47.612Z,33.50
2023-05-02T18:17:14.709Z,33.50
2023-05-02T18:19:41.587Z,35.00
2023-05-02T18:22:09.884Z,33.00
2023-05-02T18:24:36.777Z,33.50
2023-05-02T18:27:03.895Z,34.25
2023-05-02T18:29:30.777Z,32.00
2023-05-02T18:31:57.777Z,32.00
2023-05-02T18:34:24.743Z,32.00
2023-05-02T18:36:51.701Z,32.00
2023-05-02T18:39:18.583Z,32.00
2023-05-02T18:41:45.487Z,32.00
2023-05-02T18:44:12.375Z,33.00
2023-05-02T18:46:39.395Z,33.00
2023-05-02T18:49:06.227Z,32.00
2023-05-02T18:51:33.240Z,31.50
2023-05-02T18:54:00.304Z,32.00
2023-05-02T18:56:30.348Z,34.00
2023-05-02T18:58:57.674Z,34.00
2023-05-02T19:01:25.563Z,33.00
2023-05-02T19:03:53.291Z,33.00
2023-05-02T19:06:20.433Z,33.00
2023-05-02T19:08:50.425Z,31.00
2023-05-02T19:11:19.746Z,33.25
2023-05-02T19:13:49.037Z,30.00
2023-05-02T19:16:16.098Z,32.25
2023-05-02T19:18:45.335Z,34.00
2023-05-02T19:21:13.448Z,31.00
2023-05-02T19:23:41.579Z,32.00
2023-05-02T19:26:15.484Z,30.00
2023-05-02T19:28:45.696Z,31.00
2023-05-02T19:31:19.212Z,31.50
2023-05-02T19:33:51.114Z,32.00
2023-05-02T19:36:22.003Z,31.00
2023-05-02T19:38:53.236Z,31.00
2023-05-02T19:41:21.470Z,30.50
2023-05-02T19:43:48.634Z,29.50
2023-05-02T19:46:21.831Z,31.00
2023-05-02T19:48:52.561Z,30.50
2023-05-02T19:51:20.364Z,32.00
2023-05-02T19:53:51.096Z,30.00
2023-05-02T19:56:18.162Z,31.00
2023-05-02T19:58:45.024Z,33.50
2023-05-02T20:01:11.985Z,32.00
2023-05-02T20:03:39.178Z,33.00
2023-05-02T20:06:09.139Z,32.00
2023-05-02T20:08:36.372Z,30.50
2023-05-02T20:11:21.944Z,31.00
2023-05-02T20:13:49.102Z,31.50
2023-05-02T20:16:20.806Z,32.00
2023-05-02T20:18:53.129Z,31.00
2023-05-02T20:21:23.796Z,31.50
2023-05-02T20:23:53.291Z,32.00
2023-05-02T20:26:24.955Z,31.00
2023-05-02T20:28:56.744Z,31.00
2023-05-02T20:31:28.289Z,32.00
2023-05-02T20:33:55.396Z,31.50
2023-05-02T20:36:24.800Z,32.00
2023-05-02T20:38:51.685Z,32.00
2023-05-02T20:41:22.061Z,30.00
2023-05-02T20:43:51.819Z,31.00
2023-05-02T20:46:20.957Z,31.00
2023-05-02T20:48:48.337Z,31.00
2023-05-02T20:51:20.208Z,30.00
2023-05-02T20:53:47.367Z,33.00
2023-05-02T20:56:14.856Z,33.50
2023-05-02T20:58:42.567Z,32.00
2023-05-02T21:01:09.576Z,31.00
2023-05-02T21:03:38.593Z,32.00
2023-05-02T21:06:05.824Z,31.00
2023-05-02T21:08:33.172Z,30.00
2023-05-02T21:11:03.173Z,28.00
2023-05-02T21:13:30.074Z,30.00
2023-05-02T21:15:56.971Z,31.50
2023-05-02T21:18:32.085Z,32.00
2023-05-02T21:20:58.958Z,31.00
2023-05-02T21:23:25.845Z,30.00
2023-05-02T21:25:52.832Z,32.50
2023-05-02T21:28:19.719Z,31.00
2023-05-02T21:30:46.650Z,30.00
2023-05-02T21:33:13.615Z,31.00
2023-05-02T21:35:40.551Z,27.25
2023-05-02T21:38:07.388Z,30.75
2023-05-02T21:40:37.671Z,26.25
2023-05-02T21:43:05.451Z,29.50
2023-05-02T21:45:32.315Z,30.00
2023-05-02T21:47:59.443Z,30.00
2023-05-02T21:50:26.408Z,31.50
2023-05-02T21:52:53.214Z,31.00
2023-05-02T21:55:20.086Z,31.00
2023-05-02T21:57:47.181Z,31.75
2023-05-02T22:00:14.378Z,30.50
2023-05-02T22:02:41.895Z,30.00
2023-05-02T22:05:08.995Z,30.00
2023-05-02T22:07:35.841Z,30.25
2023-05-02T22:10:03.205Z,32.00
2023-05-02T22:12:30.236Z,32.50
2023-05-02T22:14:57.131Z,31.00
2023-05-02T22:17:24.031Z,30.75
2023-05-02T22:19:51.626Z,30.00
2023-05-02T22:22:18.558Z,30.00
2023-05-02T22:24:45.487Z,30.00
2023-05-02T22:27:12.372Z,30.00
2023-05-02T22:29:39.288Z,30.00
2023-05-02T22:32:06.214Z,30.00
2023-05-02T22:34:33.189Z,32.00
2023-05-02T22:37:00.047Z,32.00
2023-05-02T22:39:27.013Z,31.00
2023-05-02T22:41:53.946Z,31.00
2023-05-02T22:44:20.832Z,29.75
2023-05-02T22:46:47.775Z,25.50
2023-05-02T22:49:14.661Z,30.25
2023-05-02T22:51:41.731Z,31.00
2023-05-02T22:54:08.607Z,31.00
2023-05-02T22:56:35.552Z,30.25
2023-05-02T22:59:02.442Z,25.00
2023-05-02T23:01:29.446Z,29.25
2023-05-02T23:03:56.599Z,30.00
2023-05-02T23:06:23.530Z,30.00
2023-05-02T23:08:50.779Z,31.75
2023-05-02T23:11:17.610Z,30.00
2023-05-02T23:13:44.598Z,30.00
2023-05-02T23:16:11.549Z,30.00
2023-05-02T23:18:38.472Z,28.00
2023-05-02T23:21:05.424Z,28.00
2023-05-02T23:23:32.367Z,29.00
2023-05-02T23:25:59.233Z,30.00
2023-05-02T23:28:26.341Z,31.00
2023-05-02T23:30:53.665Z,29.50
2023-05-02T23:33:21.009Z,30.00
2023-05-02T23:35:48.440Z,30.00
2023-05-02T23:38:15.828Z,30.00
2023-05-02T23:40:42.853Z,27.50
2023-05-02T23:43:10.053Z,30.75
2023-05-02T23:45:37.102Z,30.00
2023-05-02T23:48:05.218Z,31.00
2023-05-02T23:50:32.927Z,29.25
2023-05-02T23:52:59.945Z,29.00
2023-05-02T23:55:26.794Z,29.50
2023-05-02T23:57:53.628Z,28.00
